Latest Coastal Weather Observations for Port Macquarie Airport

IDN60701

Issued at 12:51 pm EST Tuesday 21 April 2015 (issued every 10 minutes, with the page automatically refreshed every 10 minutes)

About coastal observations | Map of coastal stations | Coastal observations for NSW | Marine services | Other Formats
Station Details ID: 060139 Name: PORT MACQUARIE AIRPORT AWS Lat: -31.43 Lon: 152.87 Height: 4.2 m
Data from the previous 72 hours. | See also: Recent months at Port Macquarie Airport
Date/Time
EST
Temp

°C
Wind Pressure Rain
since 9am
mm
Weather Cloud Vis
km
Sea
Height
m
Swell
Dir
 
Speed
knots
Gust
knots
hPa Trend Height
m
Period
s
Dir
21/12:30pm 22.4 SSE 9 12 1012.4 - 0.0 - - 10 - - - -
21/12:00pm 23.3 SSE 7 13 1013.0 - 0.0 - - 10 - - - -
21/11:30am 23.5 SE 7 11 1013.3 - 0.0 - - 10 - - - -
21/11:00am 23.1 S 6 9 1013.7 - 0.0 - - 10 - - - -
21/10:30am 23.3 SW 5 9 1014.1 - 0.0 - Partly cloudy 10 - - - -
21/10:00am 22.7 SSE 5 7 1014.2 - 0.0 - - 10 - - - -
21/09:30am 22.3 W 1 5 1014.4 - 0.0 - - 10 - - - -
21/09:00am 21.1 CALM 0 0 1014.4 - 0.2 - - 10 - - - -
21/08:30am 19.7 CALM 0 0 1014.3 - 0.2 - - 10 - - - -
21/08:00am 18.5 CALM 0 0 1014.0 - 0.2 - - 10 - - - -
21/07:30am 16.6 NNW 2 6 1013.7 - 0.2 - - 10 - - - -
21/07:00am 15.5 NE 4 5 1013.2 - 0.2 - - 10 - - - -
21/06:30am 14.5 CALM 0 0 1013.2 - 0.2 - - 10 - - - -
21/06:00am 14.9 N 6 7 1013.0 - 0.2 - - 10 - - - -
21/05:30am 15.5 N 7 8 1012.7 - 0.2 - - 10 - - - -
21/05:00am 16.3 N 6 7 1012.6 - 0.2 - - 10 - - - -
21/04:30am 16.8 N 6 9 1012.7 - 0.2 - - 10 - - - -
21/04:00am 17.3 NNW 9 11 1012.9 - 0.2 - - 10 - - - -
21/03:30am 17.6 NNW 7 9 1013.0 - 0.2 - Partly cloudy 10 - - - -
21/03:00am 17.9 NNW 7 9 1013.2 - 0.2 - Mostly cloudy 10 - - - -
21/02:30am 17.4 N 7 9 1013.7 - 0.2 - Partly cloudy 10 - - - -
21/02:00am 16.4 NW 5 6 1013.7 - 0.2 - Partly cloudy 10 - - - -
21/01:30am 16.9 NNW 5 6 1014.1 - 0.2 - - 10 - - - -
21/01:00am 17.3 WNW 5 7 1014.2 - 0.2 - Partly cloudy 10 - - - -
21/12:30am 17.2 NW 5 6 1014.4 - 0.2 - Cloudy 10 - - - -
21/12:00am 17.3 NW 6 7 1014.7 - 0.2 - Cloudy 10 - - - -
 
Date/Time
EST
Temp

°C
Wind Pressure Rain
since 9am
mm
Weather Cloud Vis
km
Sea
Height
m
Swell
Dir
 
Speed
knots
Gust
knots
hPa Trend Height
m
Period
s
Dir
20/11:30pm 17.0 WNW 4 6 1015.0 - 0.2 - - 10 - - - -
20/11:00pm 17.3 NW 5 6 1015.1 - 0.2 - - 10 - - - -
20/10:30pm 17.7 NNW 6 8 1015.1 - 0.2 - Partly cloudy 10 - - - -
20/10:00pm 17.9 WNW 7 11 1015.5 - 0.2 - Partly cloudy 10 - - - -
20/09:30pm 18.0 W 8 15 1015.7 - 0.2 - Partly cloudy 10 - - - -
20/09:00pm 17.9 WNW 7 10 1016.0 - 0.2 - Cloudy 10 - - - -
20/08:30pm 17.8 WNW 8 11 1015.7 - 0.2 - - 10 - - - -
20/08:00pm 17.7 W 9 15 1016.0 - 0.2 - - 10 - - - -
20/07:30pm 17.7 W 8 11 1016.1 - 0.2 - - 10 - - - -
20/07:00pm 17.8 WNW 7 11 1016.3 - 0.2 - - 10 - - - -
20/06:30pm 17.8 W 5 9 1016.3 - 0.2 - - 10 - - - -
20/06:00pm 18.1 W 7 10 1016.3 - 0.2 - Mostly cloudy 10 - - - -
20/05:30pm 18.1 WSW 8 12 1016.2 - 0.2 - - 10 - - - -
20/05:00pm 18.2 WSW 7 10 1016.0 - 0.2 - - 10 - - - -
20/04:30pm 18.6 WSW 10 16 1015.8 - 0.2 - - 10 - - - -
20/04:00pm 18.7 WSW 6 9 1015.7 - 0.2 - Partly cloudy 10 - - - -
20/03:30pm 19.0 W 7 9 1016.0 - 0.2 - Partly cloudy 10 - - - -
20/03:00pm 19.2 WSW 7 10 1016.4 - 0.2 - Mostly cloudy 10 - - - -
20/02:30pm 19.3 WSW 10 15 1016.5 - 0.2 - Cloudy 10 - - - -
20/02:00pm 19.2 SW 9 11 1016.2 - 0.2 - Cloudy 10 - - - -
20/01:30pm 19.0 SW 8 15 1016.4 - 0.2 - Cloudy 10 - - - -
20/01:00pm 18.4 WSW 9 13 1016.7 - 0.2 - Partly cloudy 10 - - - -
20/12:30pm 18.9 WSW 8 12 1017.3 - 0.0 - Partly cloudy 10 - - - -
20/12:00pm 18.8 SW 10 14 1017.6 - 0.0 - Cloudy 10 - - - -
20/11:30am 18.6 WSW 10 14 1017.9 - 0.0 - Partly cloudy 10 - - - -
20/11:00am 18.2 WSW 10 15 1018.2 - 0.0 - Partly cloudy 10 - - - -
20/10:30am 18.0 WSW 11 16 1018.8 - 0.0 - Partly cloudy 10 - - - -
20/10:00am 17.8 WSW 11 14 1019.1 - 0.0 - Partly cloudy 10 - - - -
20/09:30am 17.6 WSW 11 14 1019.4 - 0.0 - Partly cloudy 10 - - - -
20/09:00am 17.3 WSW 11 15 1019.6 - 2.8 - Partly cloudy 10 - - - -
20/08:30am 17.0 WSW 11 15 1019.7 - 2.8 - - 10 - - - -
20/08:00am 16.8 WSW 10 14 1019.7 - 2.8 - Partly cloudy 10 - - - -
20/07:30am 16.8 WSW 10 14 1019.8 - 2.8 - Partly cloudy 10 - - - -
20/07:00am 16.8 WSW 11 15 1019.7 - 2.8 - Partly cloudy 10 - - - -
20/06:30am 16.7 WSW 11 15 1019.8 - 2.8 - Partly cloudy 10 - - - -
20/06:00am 16.6 WSW 11 16 1019.8 - 2.8 - Cloudy 10 - - - -
20/05:30am 16.7 WSW 11 16 1019.5 - 2.8 - Partly cloudy 10 - - - -
20/05:00am 17.0 WSW 12 16 1019.6 - 2.8 - Partly cloudy 10 - - - -
20/04:30am 17.3 WSW 13 17 1019.7 - 2.8 - Partly cloudy 10 - - - -
20/04:00am 17.4 SW 13 19 1019.3 - 2.8 - Partly cloudy 10 - - - -
20/03:30am 17.8 WSW 12 17 1019.2 - 2.8 - Partly cloudy 10 - - - -
20/03:00am 17.9 WSW 12 17 1019.5 - 2.8 - Cloudy 10 - - - -
20/02:30am 17.8 WSW 12 16 1019.7 - 2.8 - Partly cloudy 10 - - - -
20/02:00am 17.9 WSW 11 15 1019.6 - 2.8 - Partly cloudy 10 - - - -
20/01:30am 18.1 WSW 12 16 1019.9 - 2.8 - Cloudy 10 - - - -
20/01:00am 18.1 WSW 12 16 1020.1 - 2.8 - Partly cloudy 10 - - - -
20/12:30am 18.1 WSW 10 15 1020.3 - 2.8 - Partly cloudy 10 - - - -
20/12:00am 18.0 WSW 11 15 1020.6 - 2.8 - Mostly cloudy 10 - - - -
 
Date/Time
EST
Temp

°C
Wind Pressure Rain
since 9am
mm
Weather Cloud Vis
km
Sea
Height
m
Swell
Dir
 
Speed
knots
Gust
knots
hPa Trend Height
m
Period
s
Dir
19/11:30pm 17.9 WSW 10 15 1020.6 - 2.8 - Partly cloudy 10 - - - -
19/11:00pm 17.7 WSW 7 11 1020.8 - 2.8 - Cloudy 10 - - - -
19/10:30pm 17.7 WSW 9 12 1020.9 - 2.8 - Cloudy 10 - - - -
19/10:00pm 17.5 WSW 7 9 1021.1 - 2.8 - Cloudy 10 - - - -
19/09:30pm 17.4 W 7 10 1021.2 - 2.8 - Cloudy 10 - - - -
19/09:00pm 17.9 WSW 7 10 1021.1 - 2.8 - Mostly cloudy 10 - - - -
19/08:30pm 18.3 W 6 9 1020.9 - 2.8 - Cloudy 10 - - - -
19/08:00pm 18.9 WSW 9 12 1020.7 - 2.8 - Cloudy 10 - - - -
19/07:30pm 19.2 WSW 9 12 1020.2 - 2.8 - Cloudy 10 - - - -
19/07:00pm 19.4 SW 7 9 1019.6 - 2.8 - Cloudy 10 - - - -
19/06:30pm 19.6 SW 7 12 1019.1 - 2.8 - Cloudy 10 - - - -
19/06:00pm 19.9 SSW 8 12 1018.8 - 2.8 - Cloudy 10 - - - -
19/05:30pm 19.8 SSW 6 11 1018.6 - 2.8 - Cloudy 10 - - - -
19/05:00pm 19.8 SSW 3 5 1018.1 - 2.8 - Cloudy 10 - - - -
19/04:30pm 19.9 SW 4 5 1017.8 - 2.8 - Partly cloudy 10 - - - -
19/04:00pm 20.0 SSW 5 7 1017.6 - 2.8 - Partly cloudy 10 - - - -
19/03:30pm 21.2 SSW 9 14 1017.6 - 2.8 - Partly cloudy 10 - - - -
19/03:00pm 22.2 SE 7 9 1017.3 - 2.8 - Mostly cloudy 10 - - - -
19/02:30pm 22.7 SSE 7 9 1016.9 - 2.8 - Partly cloudy 10 - - - -
19/02:00pm 22.7 S 5 7 1016.7 - 2.8 - - 10 - - - -
19/01:30pm 21.9 W 4 5 1016.9 - 2.8 - - 10 - - - -
19/01:00pm 21.5 W 5 6 1017.2 - 2.8 - - 10 - - - -
19/12:30pm 20.9 WNW 4 6 1017.2 - 2.8 - Partly cloudy 10 - - - -
19/12:00pm 20.5 WSW 5 6 1017.7 - 2.8 Recent precip. Cloudy 10 - - - -
19/11:30am 20.4 W 5 7 1018.0 - 2.2 - Partly cloudy 10 - - - -
19/11:00am 20.3 WSW 4 5 1017.9 - 1.8 - Partly cloudy 10 - - - -
19/10:30am 20.3 W 5 6 1018.2 - 1.4 - Partly cloudy 10 - - - -
19/10:00am 20.7 CALM 0 0 1018.2 - 0.8 - Partly cloudy 8 - - - -
19/09:30am 20.6 WNW 5 6 1018.3 - 0.2 - Partly cloudy 10 - - - -
19/09:03am 20.8 NW 5 5 1018.0 - 0.2 - Partly cloudy 10 - - - -
19/09:02am 20.8 NW 4 5 1018.0 - 0.2 - Partly cloudy 10 - - - -
19/09:00am 20.8 NW 5 6 1018.0 - 2.8 - Cloudy 10 - - - -
19/08:47am 20.8 NNW 4 5 1017.7 - 2.8 - Partly cloudy 10 - - - -
19/08:46am 20.8 NW 4 5 1017.7 - 2.8 - Partly cloudy 10 - - - -
19/08:30am 20.5 NNW 4 6 1017.5 - 2.8 - Partly cloudy 10 - - - -
19/08:00am 20.4 CALM 0 0 1017.2 - 2.8 - Cloudy 10 - - - -
19/07:30am 19.8 CALM 0 0 1017.0 - 2.8 - Cloudy 10 - - - -
19/07:00am 19.6 CALM 0 0 1016.6 - 2.8 - Partly cloudy 10 - - - -
19/06:30am 19.3 CALM 0 0 1016.4 - 2.6 - Partly cloudy 10 - - - -
19/06:00am 19.3 SSW 5 7 1016.2 - 2.6 Recent precip. Cloudy 10 - - - -
19/05:30am 19.6 W 3 5 1016.2 - 2.4 - Partly cloudy 10 - - - -
19/05:00am 19.9 N 3 5 1015.6 - 1.6 - Partly cloudy 10 - - - -
19/04:30am 19.9 N 4 5 1015.1 - 1.2 - Partly cloudy 10 - - - -
19/04:00am 20.2 N 5 6 1015.1 - 0.8 - Partly cloudy 10 - - - -
19/03:30am 20.9 NNW 6 8 1015.0 - 0.4 - Partly cloudy 9 - - - -
19/03:00am 20.9 N 7 9 1014.7 - 0.0 - Cloudy 10 - - - -
19/02:30am 20.8 N 5 7 1015.2 - 0.0 - Cloudy 10 - - - -
19/02:00am 20.7 NW 4 6 1015.7 - 0.0 - Cloudy 10 - - - -
19/01:30am 20.8 N 5 7 1016.0 - 0.0 - Partly cloudy 10 - - - -
19/01:00am 20.8 N 6 8 1016.3 - 0.0 - - 10 - - - -
19/12:30am 20.9 NNW 6 9 1016.5 - 0.0 - - 10 - - - -
19/12:00am 21.3 N 7 11 1016.6 - 0.0 - Mostly cloudy 10 - - - -
 
Date/Time
EST
Temp

°C
Wind Pressure Rain
since 9am
mm
Weather Cloud Vis
km
Sea
Height
m
Swell
Dir
 
Speed
knots
Gust
knots
hPa Trend Height
m
Period
s
Dir
18/11:30pm 21.1 N 8 10 1016.6 - 0.0 - - 10 - - - -
18/11:00pm 21.0 N 7 9 1017.1 - 0.0 - - 10 - - - -
18/10:30pm 21.3 NNE 7 9 1017.3 - 0.0 - - 10 - - - -
18/10:00pm 21.7 N 7 11 1017.5 - 0.0 - - 10 - - - -
18/09:30pm 22.0 N 7 9 1017.7 - 0.0 - - 10 - - - -
18/09:00pm 22.3 N 7 9 1017.7 - 0.0 - Mostly clear 10 - - - -
18/08:30pm 22.4 N 8 11 1017.6 - 0.0 - - 10 - - - -
18/08:00pm 22.4 NNE 9 13 1017.2 - 0.0 - - 10 - - - -
18/07:30pm 22.1 N 3 5 1017.4 - 0.0 - - 10 - - - -
18/07:00pm 22.2 NE 2 5 1017.1 - 0.0 - - 10 - - - -
18/06:30pm 22.5 NNE 5 8 1016.9 - 0.0 - - 10 - - - -
18/06:00pm 22.7 NNE 7 10 1016.7 - 0.0 - Partly cloudy 10 - - - -
18/05:30pm 23.1 NNE 7 10 1016.5 - 0.0 - - 10 - - - -
18/05:00pm 23.7 NNE 9 13 1016.4 - 0.0 - - 10 - - - -
18/04:30pm 24.2 NNE 10 14 1016.8 - 0.0 - - 10 - - - -
18/04:00pm 24.7 NNE 11 16 1016.9 - 0.0 - - 10 - - - -
18/03:30pm 25.1 NNE 8 13 1017.0 - 0.0 - - 10 - - - -
18/03:00pm 25.6 NNE 10 15 1017.0 - 0.0 - - 10 - - - -
18/02:30pm 25.4 NNE 12 17 1016.9 - 0.0 - - 10 - - - -
18/02:00pm 25.8 NNE 14 21 1017.0 - 0.0 - - 10 - - - -
18/01:30pm 26.5 NNE 12 18 1017.3 - 0.0 - - 10 - - - -
18/01:00pm 26.1 NNE 9 15 1017.7 - 0.0 - - 10 - - - -

Other Formats:

Comma delimited format used in spreadsheet applications
http://www.bom.gov.au/fwo/IDN60701/IDN60701.94786.axf

JavaScript Object Notation format (JSON) in row-major order
http://www.bom.gov.au/fwo/IDN60701/IDN60701.94786.json